sensor_id;sensor_type;location;lat;lon;timestamp;P1;durP1;ratioP1;P2;durP2;ratioP2
30243;SDS011;64022;53.652;9.792;2023-03-03T00:00:20;39.90;;;25.53;;
30243;SDS011;64022;53.652;9.792;2023-03-03T00:02:46;42.43;;;26.30;;
30243;SDS011;64022;53.652;9.792;2023-03-03T00:05:12;38.90;;;25.87;;
30243;SDS011;64022;53.652;9.792;2023-03-03T00:07:41;40.63;;;26.25;;
30243;SDS011;64022;53.652;9.792;2023-03-03T00:10:08;39.60;;;25.30;;
30243;SDS011;64022;53.652;9.792;2023-03-03T00:12:34;36.80;;;24.88;;
30243;SDS011;64022;53.652;9.792;2023-03-03T00:15:01;39.05;;;25.60;;
30243;SDS011;64022;53.652;9.792;2023-03-03T00:17:38;36.67;;;24.27;;
30243;SDS011;64022;53.652;9.792;2023-03-03T00:20:21;37.87;;;25.00;;
30243;SDS011;64022;53.652;9.792;2023-03-03T00:22:53;37.60;;;23.85;;
30243;SDS011;64022;53.652;9.792;2023-03-03T00:25:27;38.80;;;24.83;;
30243;SDS011;64022;53.652;9.792;2023-03-03T00:27:55;36.15;;;24.90;;
30243;SDS011;64022;53.652;9.792;2023-03-03T00:30:25;36.70;;;24.20;;
30243;SDS011;64022;53.652;9.792;2023-03-03T00:32:52;37.20;;;25.02;;
30243;SDS011;64022;53.652;9.792;2023-03-03T00:35:26;36.67;;;24.83;;
30243;SDS011;64022;53.652;9.792;2023-03-03T00:38:00;36.08;;;24.45;;
30243;SDS011;64022;53.652;9.792;2023-03-03T00:40:35;37.33;;;24.35;;
30243;SDS011;64022;53.652;9.792;2023-03-03T00:43:11;35.78;;;25.08;;
30243;SDS011;64022;53.652;9.792;2023-03-03T00:45:50;37.10;;;24.25;;
30243;SDS011;64022;53.652;9.792;2023-03-03T00:48:21;36.25;;;22.92;;
30243;SDS011;64022;53.652;9.792;2023-03-03T00:50:54;37.95;;;24.27;;
30243;SDS011;64022;53.652;9.792;2023-03-03T00:53:21;36.38;;;23.65;;
30243;SDS011;64022;53.652;9.792;2023-03-03T00:55:48;37.45;;;24.35;;
30243;SDS011;64022;53.652;9.792;2023-03-03T00:58:15;36.50;;;24.48;;
30243;SDS011;64022;53.652;9.792;2023-03-03T01:00:42;37.15;;;23.52;;
30243;SDS011;64022;53.652;9.792;2023-03-03T01:03:11;36.80;;;23.47;;
30243;SDS011;64022;53.652;9.792;2023-03-03T01:05:41;35.10;;;23.92;;
30243;SDS011;64022;53.652;9.792;2023-03-03T01:08:07;36.47;;;23.43;;
30243;SDS011;64022;53.652;9.792;2023-03-03T01:10:34;34.47;;;22.73;;
30243;SDS011;64022;53.652;9.792;2023-03-03T01:13:03;36.75;;;23.33;;
30243;SDS011;64022;53.652;9.792;2023-03-03T01:15:29;32.75;;;22.05;;
30243;SDS011;64022;53.652;9.792;2023-03-03T01:17:55;36.43;;;22.67;;
30243;SDS011;64022;53.652;9.792;2023-03-03T01:20:21;36.10;;;23.83;;
30243;SDS011;64022;53.652;9.792;2023-03-03T01:22:47;35.17;;;23.40;;
30243;SDS011;64022;53.652;9.792;2023-03-03T01:25:13;33.23;;;23.37;;
30243;SDS011;64022;53.652;9.792;2023-03-03T01:27:38;36.90;;;23.33;;
30243;SDS011;64022;53.652;9.792;2023-03-03T01:30:04;34.37;;;23.23;;
30243;SDS011;64022;53.652;9.792;2023-03-03T01:32:31;33.65;;;22.92;;
30243;SDS011;64022;53.652;9.792;2023-03-03T01:34:57;33.83;;;22.47;;
30243;SDS011;64022;53.652;9.792;2023-03-03T01:37:22;34.10;;;23.37;;
30243;SDS011;64022;53.652;9.792;2023-03-03T01:39:51;34.00;;;22.80;;
30243;SDS011;64022;53.652;9.792;2023-03-03T01:42:18;32.70;;;22.10;;
30243;SDS011;64022;53.652;9.792;2023-03-03T01:44:44;34.63;;;23.45;;
30243;SDS011;64022;53.652;9.792;2023-03-03T01:47:12;31.85;;;21.80;;
30243;SDS011;64022;53.652;9.792;2023-03-03T01:49:59;34.85;;;22.95;;
30243;SDS011;64022;53.652;9.792;2023-03-03T01:52:32;32.55;;;22.60;;
30243;SDS011;64022;53.652;9.792;2023-03-03T01:55:02;34.25;;;22.35;;
30243;SDS011;64022;53.652;9.792;2023-03-03T01:57:34;32.28;;;21.50;;
30243;SDS011;64022;53.652;9.792;2023-03-03T02:00:04;34.40;;;22.48;;
30243;SDS011;64022;53.652;9.792;2023-03-03T02:02:32;32.25;;;21.65;;
30243;SDS011;64022;53.652;9.792;2023-03-03T02:04:59;31.17;;;21.80;;
30243;SDS011;64022;53.652;9.792;2023-03-03T02:07:25;33.13;;;23.07;;
30243;SDS011;64022;53.652;9.792;2023-03-03T02:12:34;31.27;;;20.98;;
30243;SDS011;64022;53.652;9.792;2023-03-03T02:17:49;28.52;;;20.25;;
30243;SDS011;64022;53.652;9.792;2023-03-03T02:22:54;30.98;;;20.67;;
30243;SDS011;64022;53.652;9.792;2023-03-03T02:25:33;30.35;;;20.50;;
30243;SDS011;64022;53.652;9.792;2023-03-03T02:28:08;29.70;;;19.75;;
30243;SDS011;64022;53.652;9.792;2023-03-03T02:30:36;31.37;;;20.63;;
30243;SDS011;64022;53.652;9.792;2023-03-03T02:33:03;29.45;;;19.10;;
30243;SDS011;64022;53.652;9.792;2023-03-03T02:35:31;30.92;;;20.77;;
30243;SDS011;64022;53.652;9.792;2023-03-03T02:38:01;29.45;;;20.13;;
30243;SDS011;64022;53.652;9.792;2023-03-03T02:40:46;31.83;;;20.35;;
30243;SDS011;64022;53.652;9.792;2023-03-03T02:43:19;30.35;;;19.90;;
30243;SDS011;64022;53.652;9.792;2023-03-03T02:45:47;32.33;;;21.42;;
30243;SDS011;64022;53.652;9.792;2023-03-03T02:48:12;28.10;;;19.17;;
30243;SDS011;64022;53.652;9.792;2023-03-03T02:50:38;28.17;;;19.37;;
30243;SDS011;64022;53.652;9.792;2023-03-03T02:53:03;29.90;;;20.93;;
30243;SDS011;64022;53.652;9.792;2023-03-03T02:55:29;26.53;;;18.73;;
30243;SDS011;64022;53.652;9.792;2023-03-03T02:57:55;28.33;;;20.03;;
30243;SDS011;64022;53.652;9.792;2023-03-03T03:00:21;29.30;;;19.80;;
30243;SDS011;64022;53.652;9.792;2023-03-03T03:02:46;28.87;;;19.70;;
30243;SDS011;64022;53.652;9.792;2023-03-03T03:05:12;28.57;;;19.17;;
30243;SDS011;64022;53.652;9.792;2023-03-03T03:07:37;30.23;;;20.23;;
30243;SDS011;64022;53.652;9.792;2023-03-03T03:10:03;29.63;;;18.87;;
30243;SDS011;64022;53.652;9.792;2023-03-03T03:12:29;27.33;;;18.50;;
30243;SDS011;64022;53.652;9.792;2023-03-03T03:14:55;27.73;;;19.55;;
30243;SDS011;64022;53.652;9.792;2023-03-03T03:17:20;28.03;;;18.17;;
30243;SDS011;64022;53.652;9.792;2023-03-03T03:19:46;26.83;;;17.77;;
30243;SDS011;64022;53.652;9.792;2023-03-03T03:22:12;25.60;;;17.67;;
30243;SDS011;64022;53.652;9.792;2023-03-03T03:24:37;29.50;;;18.53;;
30243;SDS011;64022;53.652;9.792;2023-03-03T03:27:02;27.73;;;18.47;;
30243;SDS011;64022;53.652;9.792;2023-03-03T03:29:28;25.10;;;17.40;;
30243;SDS011;64022;53.652;9.792;2023-03-03T03:31:54;26.93;;;17.90;;
30243;SDS011;64022;53.652;9.792;2023-03-03T03:34:19;28.70;;;18.50;;
30243;SDS011;64022;53.652;9.792;2023-03-03T03:36:45;27.77;;;17.57;;
30243;SDS011;64022;53.652;9.792;2023-03-03T03:39:10;26.43;;;17.70;;
30243;SDS011;64022;53.652;9.792;2023-03-03T03:41:37;25.55;;;17.70;;
30243;SDS011;64022;53.652;9.792;2023-03-03T03:44:02;24.37;;;16.93;;
30243;SDS011;64022;53.652;9.792;2023-03-03T03:46:28;25.00;;;17.43;;
30243;SDS011;64022;53.652;9.792;2023-03-03T03:48:53;27.23;;;18.10;;
30243;SDS011;64022;53.652;9.792;2023-03-03T03:51:19;25.93;;;17.20;;
30243;SDS011;64022;53.652;9.792;2023-03-03T03:53:44;22.60;;;15.77;;
30243;SDS011;64022;53.652;9.792;2023-03-03T03:56:10;23.10;;;15.30;;
30243;SDS011;64022;53.652;9.792;2023-03-03T03:58:35;23.33;;;16.20;;
30243;SDS011;64022;53.652;9.792;2023-03-03T04:01:05;26.63;;;17.83;;
30243;SDS011;64022;53.652;9.792;2023-03-03T04:03:31;25.08;;;15.65;;
30243;SDS011;64022;53.652;9.792;2023-03-03T04:05:57;27.10;;;16.10;;
30243;SDS011;64022;53.652;9.792;2023-03-03T04:08:22;24.27;;;15.47;;
30243;SDS011;64022;53.652;9.792;2023-03-03T04:10:48;21.53;;;14.93;;
30243;SDS011;64022;53.652;9.792;2023-03-03T04:13:14;20.87;;;14.30;;
30243;SDS011;64022;53.652;9.792;2023-03-03T04:15:40;21.57;;;14.93;;
30243;SDS011;64022;53.652;9.792;2023-03-03T04:18:06;20.42;;;14.23;;
30243;SDS011;64022;53.652;9.792;2023-03-03T04:20:32;23.47;;;14.93;;
30243;SDS011;64022;53.652;9.792;2023-03-03T04:22:57;20.77;;;14.20;;
30243;SDS011;64022;53.652;9.792;2023-03-03T04:25:23;19.53;;;13.87;;
30243;SDS011;64022;53.652;9.792;2023-03-03T04:27:48;20.53;;;13.93;;
30243;SDS011;64022;53.652;9.792;2023-03-03T04:30:15;20.77;;;14.80;;
30243;SDS011;64022;53.652;9.792;2023-03-03T04:32:41;19.97;;;13.73;;
30243;SDS011;64022;53.652;9.792;2023-03-03T04:35:07;21.10;;;14.37;;
30243;SDS011;64022;53.652;9.792;2023-03-03T04:37:33;21.58;;;14.88;;
30243;SDS011;64022;53.652;9.792;2023-03-03T04:39:59;21.63;;;14.65;;
30243;SDS011;64022;53.652;9.792;2023-03-03T04:42:25;22.50;;;14.13;;
30243;SDS011;64022;53.652;9.792;2023-03-03T04:47:17;22.30;;;13.32;;
30243;SDS011;64022;53.652;9.792;2023-03-03T04:49:43;19.73;;;13.37;;
30243;SDS011;64022;53.652;9.792;2023-03-03T04:52:08;18.53;;;13.07;;
30243;SDS011;64022;53.652;9.792;2023-03-03T04:54:34;21.97;;;13.63;;
30243;SDS011;64022;53.652;9.792;2023-03-03T04:57:00;22.20;;;13.10;;
30243;SDS011;64022;53.652;9.792;2023-03-03T04:59:25;22.77;;;13.37;;
30243;SDS011;64022;53.652;9.792;2023-03-03T05:01:51;25.00;;;14.07;;
30243;SDS011;64022;53.652;9.792;2023-03-03T05:04:16;21.73;;;13.03;;
30243;SDS011;64022;53.652;9.792;2023-03-03T05:06:42;19.83;;;12.60;;
30243;SDS011;64022;53.652;9.792;2023-03-03T05:09:07;19.20;;;12.83;;
30243;SDS011;64022;53.652;9.792;2023-03-03T05:11:33;18.50;;;12.37;;
30243;SDS011;64022;53.652;9.792;2023-03-03T05:13:59;19.90;;;12.55;;
30243;SDS011;64022;53.652;9.792;2023-03-03T05:16:26;18.98;;;13.00;;
30243;SDS011;64022;53.652;9.792;2023-03-03T05:18:52;22.53;;;12.57;;
30243;SDS011;64022;53.652;9.792;2023-03-03T05:21:18;22.50;;;12.03;;
30243;SDS011;64022;53.652;9.792;2023-03-03T05:23:43;21.13;;;12.53;;
30243;SDS011;64022;53.652;9.792;2023-03-03T05:26:09;24.37;;;13.17;;
30243;SDS011;64022;53.652;9.792;2023-03-03T05:28:34;21.00;;;12.80;;
30243;SDS011;64022;53.652;9.792;2023-03-03T05:31:00;21.07;;;12.57;;
30243;SDS011;64022;53.652;9.792;2023-03-03T05:33:25;17.97;;;12.57;;
30243;SDS011;64022;53.652;9.792;2023-03-03T05:35:54;18.30;;;12.53;;
30243;SDS011;64022;53.652;9.792;2023-03-03T05:38:21;18.85;;;12.55;;
30243;SDS011;64022;53.652;9.792;2023-03-03T05:40:47;19.52;;;12.68;;
30243;SDS011;64022;53.652;9.792;2023-03-03T05:43:13;20.57;;;13.10;;
30243;SDS011;64022;53.652;9.792;2023-03-03T05:45:38;20.67;;;13.43;;
30243;SDS011;64022;53.652;9.792;2023-03-03T05:48:04;18.83;;;12.93;;
30243;SDS011;64022;53.652;9.792;2023-03-03T05:50:29;17.87;;;12.47;;
30243;SDS011;64022;53.652;9.792;2023-03-03T05:52:56;25.17;;;12.85;;
30243;SDS011;64022;53.652;9.792;2023-03-03T05:55:22;17.52;;;12.10;;
30243;SDS011;64022;53.652;9.792;2023-03-03T05:57:48;19.30;;;12.57;;
30243;SDS011;64022;53.652;9.792;2023-03-03T06:00:13;19.10;;;11.57;;
30243;SDS011;64022;53.652;9.792;2023-03-03T06:02:40;18.48;;;12.48;;
30243;SDS011;64022;53.652;9.792;2023-03-03T06:05:06;19.10;;;12.27;;
30243;SDS011;64022;53.652;9.792;2023-03-03T06:07:33;20.95;;;11.80;;
30243;SDS011;64022;53.652;9.792;2023-03-03T06:09:58;24.07;;;12.60;;
30243;SDS011;64022;53.652;9.792;2023-03-03T06:12:24;16.87;;;12.17;;
30243;SDS011;64022;53.652;9.792;2023-03-03T06:14:50;17.63;;;11.77;;
30243;SDS011;64022;53.652;9.792;2023-03-03T06:17:15;18.80;;;12.40;;
30243;SDS011;64022;53.652;9.792;2023-03-03T06:19:41;17.60;;;12.27;;
30243;SDS011;64022;53.652;9.792;2023-03-03T06:22:07;21.27;;;12.40;;
30243;SDS011;64022;53.652;9.792;2023-03-03T06:24:32;17.27;;;11.83;;
30243;SDS011;64022;53.652;9.792;2023-03-03T06:26:58;16.83;;;12.13;;
30243;SDS011;64022;53.652;9.792;2023-03-03T06:29:25;18.30;;;12.57;;
30243;SDS011;64022;53.652;9.792;2023-03-03T06:31:51;20.75;;;11.68;;
30243;SDS011;64022;53.652;9.792;2023-03-03T06:34:17;18.67;;;11.77;;
30243;SDS011;64022;53.652;9.792;2023-03-03T06:36:42;19.03;;;11.93;;
30243;SDS011;64022;53.652;9.792;2023-03-03T06:39:08;18.07;;;12.47;;
30243;SDS011;64022;53.652;9.792;2023-03-03T06:41:34;17.13;;;11.90;;
30243;SDS011;64022;53.652;9.792;2023-03-03T06:43:59;18.03;;;12.47;;
30243;SDS011;64022;53.652;9.792;2023-03-03T06:46:25;17.77;;;12.23;;
30243;SDS011;64022;53.652;9.792;2023-03-03T06:48:51;17.85;;;12.40;;
30243;SDS011;64022;53.652;9.792;2023-03-03T06:51:21;18.83;;;11.77;;
30243;SDS011;64022;53.652;9.792;2023-03-03T06:53:51;19.48;;;12.23;;
30243;SDS011;64022;53.652;9.792;2023-03-03T06:56:21;16.30;;;11.88;;
30243;SDS011;64022;53.652;9.792;2023-03-03T06:58:52;16.92;;;12.50;;
30243;SDS011;64022;53.652;9.792;2023-03-03T07:01:20;16.48;;;11.90;;
30243;SDS011;64022;53.652;9.792;2023-03-03T07:03:46;15.83;;;11.93;;
30243;SDS011;64022;53.652;9.792;2023-03-03T07:06:19;16.97;;;12.67;;
30243;SDS011;64022;53.652;9.792;2023-03-03T07:08:47;17.95;;;12.77;;
30243;SDS011;64022;53.652;9.792;2023-03-03T07:11:15;19.37;;;12.70;;
30243;SDS011;64022;53.652;9.792;2023-03-03T07:13:45;19.95;;;12.68;;
30243;SDS011;64022;53.652;9.792;2023-03-03T07:16:13;19.85;;;13.45;;
30243;SDS011;64022;53.652;9.792;2023-03-03T07:21:07;18.03;;;12.53;;
30243;SDS011;64022;53.652;9.792;2023-03-03T07:23:43;17.75;;;12.48;;
30243;SDS011;64022;53.652;9.792;2023-03-03T07:26:11;17.50;;;12.32;;
30243;SDS011;64022;53.652;9.792;2023-03-03T07:28:39;19.08;;;12.38;;
30243;SDS011;64022;53.652;9.792;2023-03-03T07:31:19;18.15;;;12.18;;
30243;SDS011;64022;53.652;9.792;2023-03-03T07:33:51;18.63;;;12.32;;
30243;SDS011;64022;53.652;9.792;2023-03-03T07:36:35;16.85;;;12.55;;
30243;SDS011;64022;53.652;9.792;2023-03-03T07:39:02;17.95;;;12.73;;
30243;SDS011;64022;53.652;9.792;2023-03-03T07:41:57;16.67;;;11.43;;
30243;SDS011;64022;53.652;9.792;2023-03-03T07:44:34;17.95;;;12.05;;
30243;SDS011;64022;53.652;9.792;2023-03-03T07:47:23;17.30;;;11.88;;
30243;SDS011;64022;53.652;9.792;2023-03-03T07:49:48;17.30;;;12.15;;
30243;SDS011;64022;53.652;9.792;2023-03-03T07:52:29;17.83;;;12.52;;
30243;SDS011;64022;53.652;9.792;2023-03-03T07:55:17;17.75;;;12.65;;
30243;SDS011;64022;53.652;9.792;2023-03-03T07:57:50;18.42;;;13.07;;
30243;SDS011;64022;53.652;9.792;2023-03-03T08:03:02;15.85;;;12.02;;
30243;SDS011;64022;53.652;9.792;2023-03-03T08:05:30;17.88;;;13.10;;
30243;SDS011;64022;53.652;9.792;2023-03-03T08:10:46;17.20;;;11.70;;
30243;SDS011;64022;53.652;9.792;2023-03-03T08:13:15;16.83;;;12.15;;
30243;SDS011;64022;53.652;9.792;2023-03-03T08:15:41;16.27;;;11.93;;
30243;SDS011;64022;53.652;9.792;2023-03-03T08:18:18;16.17;;;11.63;;
30243;SDS011;64022;53.652;9.792;2023-03-03T08:20:51;17.98;;;12.45;;
30243;SDS011;64022;53.652;9.792;2023-03-03T08:23:19;17.65;;;12.43;;
30243;SDS011;64022;53.652;9.792;2023-03-03T08:25:45;17.20;;;11.83;;
30243;SDS011;64022;53.652;9.792;2023-03-03T08:28:12;18.60;;;13.27;;
30243;SDS011;64022;53.652;9.792;2023-03-03T08:30:38;20.90;;;12.70;;
30243;SDS011;64022;53.652;9.792;2023-03-03T08:33:03;18.50;;;12.03;;
30243;SDS011;64022;53.652;9.792;2023-03-03T08:35:29;17.30;;;12.43;;
30243;SDS011;64022;53.652;9.792;2023-03-03T08:37:54;17.23;;;12.40;;
30243;SDS011;64022;53.652;9.792;2023-03-03T08:40:20;17.60;;;11.70;;
30243;SDS011;64022;53.652;9.792;2023-03-03T08:42:46;17.00;;;12.00;;
30243;SDS011;64022;53.652;9.792;2023-03-03T08:45:11;20.33;;;12.27;;
30243;SDS011;64022;53.652;9.792;2023-03-03T08:47:37;18.37;;;12.37;;
30243;SDS011;64022;53.652;9.792;2023-03-03T08:50:03;16.00;;;11.77;;
30243;SDS011;64022;53.652;9.792;2023-03-03T08:52:29;15.98;;;11.48;;
30243;SDS011;64022;53.652;9.792;2023-03-03T08:54:55;15.53;;;11.30;;
30243;SDS011;64022;53.652;9.792;2023-03-03T08:57:20;16.97;;;11.97;;
30243;SDS011;64022;53.652;9.792;2023-03-03T08:59:46;16.70;;;12.00;;
30243;SDS011;64022;53.652;9.792;2023-03-03T09:02:12;15.93;;;11.40;;
30243;SDS011;64022;53.652;9.792;2023-03-03T09:04:37;16.70;;;12.03;;
30243;SDS011;64022;53.652;9.792;2023-03-03T09:07:03;16.27;;;11.33;;
30243;SDS011;64022;53.652;9.792;2023-03-03T09:09:29;17.00;;;11.70;;
30243;SDS011;64022;53.652;9.792;2023-03-03T09:11:56;16.87;;;12.93;;
30243;SDS011;64022;53.652;9.792;2023-03-03T09:14:24;18.17;;;11.88;;
30243;SDS011;64022;53.652;9.792;2023-03-03T09:16:53;17.67;;;12.25;;
30243;SDS011;64022;53.652;9.792;2023-03-03T09:19:28;20.08;;;12.52;;
30243;SDS011;64022;53.652;9.792;2023-03-03T09:21:58;16.45;;;12.23;;
30243;SDS011;64022;53.652;9.792;2023-03-03T09:24:35;17.58;;;13.02;;
30243;SDS011;64022;53.652;9.792;2023-03-03T09:27:01;16.73;;;12.17;;
30243;SDS011;64022;53.652;9.792;2023-03-03T09:29:36;17.13;;;12.82;;
30243;SDS011;64022;53.652;9.792;2023-03-03T09:34:50;16.10;;;11.73;;
30243;SDS011;64022;53.652;9.792;2023-03-03T09:39:48;16.00;;;12.07;;
30243;SDS011;64022;53.652;9.792;2023-03-03T09:47:43;18.75;;;13.32;;
30243;SDS011;64022;53.652;9.792;2023-03-03T09:50:35;16.60;;;12.40;;
30243;SDS011;64022;53.652;9.792;2023-03-03T09:58:52;15.55;;;11.50;;
30243;SDS011;64022;53.652;9.792;2023-03-03T10:13:25;18.37;;;13.20;;
30243;SDS011;64022;53.652;9.792;2023-03-03T10:18:34;16.73;;;12.70;;
30243;SDS011;64022;53.652;9.792;2023-03-03T10:45:44;32.83;;;15.77;;
30243;SDS011;64022;53.652;9.792;2023-03-03T10:53:43;28.33;;;16.25;;
30243;SDS011;64022;53.652;9.792;2023-03-03T10:59:18;30.52;;;16.17;;
30243;SDS011;64022;53.652;9.792;2023-03-03T11:07:35;33.47;;;16.73;;
30243;SDS011;64022;53.652;9.792;2023-03-03T11:10:16;35.33;;;17.60;;
30243;SDS011;64022;53.652;9.792;2023-03-03T11:13:01;32.70;;;17.10;;
30243;SDS011;64022;53.652;9.792;2023-03-03T11:15:46;29.30;;;17.10;;
30243;SDS011;64022;53.652;9.792;2023-03-03T11:20:55;33.63;;;17.88;;
30243;SDS011;64022;53.652;9.792;2023-03-03T11:26:06;28.48;;;16.65;;
30243;SDS011;64022;53.652;9.792;2023-03-03T11:28:54;31.42;;;17.52;;
30243;SDS011;64022;53.652;9.792;2023-03-03T11:37:07;30.45;;;17.73;;
30243;SDS011;64022;53.652;9.792;2023-03-03T11:39:37;33.47;;;18.20;;
30243;SDS011;64022;53.652;9.792;2023-03-03T11:45:02;32.67;;;17.83;;
30243;SDS011;64022;53.652;9.792;2023-03-03T11:47:39;32.47;;;18.30;;
30243;SDS011;64022;53.652;9.792;2023-03-03T12:00:17;28.55;;;17.73;;
30243;SDS011;64022;53.652;9.792;2023-03-03T12:08:41;32.20;;;18.40;;
30243;SDS011;64022;53.652;9.792;2023-03-03T12:14:35;28.30;;;17.85;;
30243;SDS011;64022;53.652;9.792;2023-03-03T12:28:40;31.23;;;18.40;;
30243;SDS011;64022;53.652;9.792;2023-03-03T12:31:24;29.80;;;18.45;;
30243;SDS011;64022;53.652;9.792;2023-03-03T12:34:13;33.40;;;18.73;;
30243;SDS011;64022;53.652;9.792;2023-03-03T12:39:36;33.58;;;17.88;;
30243;SDS011;64022;53.652;9.792;2023-03-03T12:44:59;30.17;;;19.25;;
30243;SDS011;64022;53.652;9.792;2023-03-03T12:47:40;31.63;;;19.15;;
30243;SDS011;64022;53.652;9.792;2023-03-03T12:50:26;31.52;;;18.67;;
30243;SDS011;64022;53.652;9.792;2023-03-03T13:03:48;31.30;;;18.67;;
30243;SDS011;64022;53.652;9.792;2023-03-03T13:06:45;30.52;;;18.85;;
30243;SDS011;64022;53.652;9.792;2023-03-03T13:15:20;33.00;;;19.05;;
30243;SDS011;64022;53.652;9.792;2023-03-03T13:23:28;28.73;;;18.92;;
30243;SDS011;64022;53.652;9.792;2023-03-03T13:31:08;29.90;;;19.90;;
30243;SDS011;64022;53.652;9.792;2023-03-03T13:33:43;30.27;;;19.02;;
30243;SDS011;64022;53.652;9.792;2023-03-03T13:36:19;30.85;;;19.45;;
30243;SDS011;64022;53.652;9.792;2023-03-03T13:38:56;32.78;;;20.02;;
30243;SDS011;64022;53.652;9.792;2023-03-03T13:41:43;27.73;;;18.95;;
30243;SDS011;64022;53.652;9.792;2023-03-03T13:44:23;28.00;;;18.95;;
30243;SDS011;64022;53.652;9.792;2023-03-03T13:47:15;27.02;;;18.50;;
30243;SDS011;64022;53.652;9.792;2023-03-03T13:50:10;30.40;;;19.05;;
30243;SDS011;64022;53.652;9.792;2023-03-03T13:53:02;29.92;;;18.63;;
30243;SDS011;64022;53.652;9.792;2023-03-03T13:58:20;29.20;;;17.33;;
30243;SDS011;64022;53.652;9.792;2023-03-03T14:01:15;29.90;;;18.15;;
30243;SDS011;64022;53.652;9.792;2023-03-03T14:03:50;26.05;;;16.13;;
30243;SDS011;64022;53.652;9.792;2023-03-03T14:06:25;27.60;;;17.80;;
30243;SDS011;64022;53.652;9.792;2023-03-03T14:09:11;26.23;;;17.30;;
30243;SDS011;64022;53.652;9.792;2023-03-03T14:14:53;27.70;;;16.75;;
30243;SDS011;64022;53.652;9.792;2023-03-03T14:19:58;26.15;;;17.30;;
30243;SDS011;64022;53.652;9.792;2023-03-03T14:22:44;26.17;;;15.95;;
30243;SDS011;64022;53.652;9.792;2023-03-03T14:25:16;25.10;;;16.30;;
30243;SDS011;64022;53.652;9.792;2023-03-03T14:38:25;25.13;;;15.35;;
30243;SDS011;64022;53.652;9.792;2023-03-03T14:41:04;22.70;;;14.60;;
30243;SDS011;64022;53.652;9.792;2023-03-03T14:48:55;25.10;;;13.88;;
30243;SDS011;64022;53.652;9.792;2023-03-03T14:51:26;25.38;;;14.27;;
30243;SDS011;64022;53.652;9.792;2023-03-03T14:54:14;24.90;;;13.32;;
30243;SDS011;64022;53.652;9.792;2023-03-03T14:57:38;23.15;;;14.23;;
30243;SDS011;64022;53.652;9.792;2023-03-03T15:07:46;18.35;;;13.35;;
30243;SDS011;64022;53.652;9.792;2023-03-03T15:10:25;20.90;;;12.73;;
30243;SDS011;64022;53.652;9.792;2023-03-03T15:15:59;23.30;;;12.90;;
30243;SDS011;64022;53.652;9.792;2023-03-03T15:18:28;22.75;;;12.95;;
30243;SDS011;64022;53.652;9.792;2023-03-03T15:23:36;19.30;;;12.00;;
30243;SDS011;64022;53.652;9.792;2023-03-03T15:26:27;26.15;;;13.07;;
30243;SDS011;64022;53.652;9.792;2023-03-03T15:29:40;21.27;;;12.90;;
30243;SDS011;64022;53.652;9.792;2023-03-03T15:34:53;21.15;;;11.43;;
30243;SDS011;64022;53.652;9.792;2023-03-03T15:42:57;18.95;;;11.05;;
30243;SDS011;64022;53.652;9.792;2023-03-03T15:45:44;17.45;;;11.50;;
30243;SDS011;64022;53.652;9.792;2023-03-03T15:57:05;15.90;;;10.65;;
30243;SDS011;64022;53.652;9.792;2023-03-03T16:13:36;18.63;;;10.65;;
30243;SDS011;64022;53.652;9.792;2023-03-03T16:16:32;18.73;;;10.32;;
30243;SDS011;64022;53.652;9.792;2023-03-03T16:19:17;18.13;;;10.55;;
30243;SDS011;64022;53.652;9.792;2023-03-03T16:22:06;18.08;;;10.73;;
30243;SDS011;64022;53.652;9.792;2023-03-03T16:24:57;17.02;;;10.05;;
30243;SDS011;64022;53.652;9.792;2023-03-03T16:27:51;20.70;;;11.07;;
30243;SDS011;64022;53.652;9.792;2023-03-03T16:33:15;17.73;;;10.55;;
30243;SDS011;64022;53.652;9.792;2023-03-03T16:38:28;19.70;;;10.77;;
30243;SDS011;64022;53.652;9.792;2023-03-03T16:41:00;19.65;;;9.52;;
30243;SDS011;64022;53.652;9.792;2023-03-03T16:43:45;19.67;;;9.85;;
30243;SDS011;64022;53.652;9.792;2023-03-03T16:46:39;17.38;;;10.80;;
30243;SDS011;64022;53.652;9.792;2023-03-03T16:49:12;16.02;;;9.68;;
30243;SDS011;64022;53.652;9.792;2023-03-03T16:54:27;17.80;;;10.85;;
30243;SDS011;64022;53.652;9.792;2023-03-03T16:59:54;19.02;;;10.13;;
30243;SDS011;64022;53.652;9.792;2023-03-03T17:07:41;14.63;;;9.80;;
30243;SDS011;64022;53.652;9.792;2023-03-03T17:12:46;21.58;;;10.43;;
30243;SDS011;64022;53.652;9.792;2023-03-03T17:20:59;22.42;;;9.98;;
30243;SDS011;64022;53.652;9.792;2023-03-03T17:26:17;20.20;;;10.65;;
30243;SDS011;64022;53.652;9.792;2023-03-03T17:29:20;16.83;;;10.50;;
30243;SDS011;64022;53.652;9.792;2023-03-03T17:37:16;17.27;;;10.75;;
30243;SDS011;64022;53.652;9.792;2023-03-03T17:40:20;18.63;;;10.18;;
30243;SDS011;64022;53.652;9.792;2023-03-03T17:45:34;16.70;;;11.13;;
30243;SDS011;64022;53.652;9.792;2023-03-03T17:48:09;16.40;;;10.90;;
30243;SDS011;64022;53.652;9.792;2023-03-03T17:56:12;19.38;;;11.43;;
30243;SDS011;64022;53.652;9.792;2023-03-03T18:12:56;26.33;;;15.50;;
30243;SDS011;64022;53.652;9.792;2023-03-03T18:20:45;25.90;;;16.30;;
30243;SDS011;64022;53.652;9.792;2023-03-03T18:26:27;26.20;;;16.92;;
30243;SDS011;64022;53.652;9.792;2023-03-03T18:31:48;30.13;;;17.35;;
30243;SDS011;64022;53.652;9.792;2023-03-03T18:34:36;28.38;;;17.35;;
30243;SDS011;64022;53.652;9.792;2023-03-03T18:37:09;31.75;;;17.83;;
30243;SDS011;64022;53.652;9.792;2023-03-03T18:45:10;26.77;;;17.80;;
30243;SDS011;64022;53.652;9.792;2023-03-03T18:53:23;30.67;;;19.20;;
30243;SDS011;64022;53.652;9.792;2023-03-03T18:56:00;29.42;;;19.05;;
30243;SDS011;64022;53.652;9.792;2023-03-03T18:58:28;28.52;;;18.88;;
30243;SDS011;64022;53.652;9.792;2023-03-03T19:00:56;33.13;;;19.58;;
30243;SDS011;64022;53.652;9.792;2023-03-03T19:03:54;33.25;;;20.20;;
30243;SDS011;64022;53.652;9.792;2023-03-03T19:06:31;31.67;;;19.33;;
30243;SDS011;64022;53.652;9.792;2023-03-03T19:08:59;35.67;;;20.92;;
30243;SDS011;64022;53.652;9.792;2023-03-03T19:11:35;33.47;;;21.30;;
30243;SDS011;64022;53.652;9.792;2023-03-03T19:16:50;34.58;;;22.17;;
30243;SDS011;64022;53.652;9.792;2023-03-03T19:19:17;31.73;;;20.92;;
30243;SDS011;64022;53.652;9.792;2023-03-03T19:27:34;31.53;;;20.60;;
30243;SDS011;64022;53.652;9.792;2023-03-03T19:30:16;34.55;;;20.80;;
30243;SDS011;64022;53.652;9.792;2023-03-03T19:32:59;32.78;;;20.60;;
30243;SDS011;64022;53.652;9.792;2023-03-03T19:35:51;36.53;;;21.30;;
30243;SDS011;64022;53.652;9.792;2023-03-03T19:46:41;32.47;;;21.73;;
30243;SDS011;64022;53.652;9.792;2023-03-03T20:00:47;30.63;;;20.02;;
30243;SDS011;64022;53.652;9.792;2023-03-03T20:12:16;42.17;;;23.42;;
30243;SDS011;64022;53.652;9.792;2023-03-03T20:17:40;40.17;;;23.83;;
30243;SDS011;64022;53.652;9.792;2023-03-03T20:20:23;43.55;;;24.83;;
30243;SDS011;64022;53.652;9.792;2023-03-03T20:31:22;38.42;;;22.65;;
30243;SDS011;64022;53.652;9.792;2023-03-03T20:34:15;38.10;;;24.17;;
30243;SDS011;64022;53.652;9.792;2023-03-03T20:37:08;39.65;;;23.98;;
30243;SDS011;64022;53.652;9.792;2023-03-03T20:50:29;42.50;;;25.50;;
30243;SDS011;64022;53.652;9.792;2023-03-03T20:53:22;40.88;;;24.02;;
30243;SDS011;64022;53.652;9.792;2023-03-03T21:01:13;43.20;;;24.83;;
30243;SDS011;64022;53.652;9.792;2023-03-03T21:03:45;40.90;;;23.20;;